Home > Products > Valid Products > TAF

000
FTUS41 KALY 232300 CCA
TAFPOU
TAF COR
KPOU 232359Z 2400/2424 22005KT P6SM VCTS SCT060CB
      TEMPO 2400/2401 VRB25KT 3SM TSRA OVC030CB
     FM240200 VRB03KT P6SM VCSH BKN050
     FM240600 34003KT 6SM BR BKN050
     FM241200 34008KT P6SM SCT050 BKN250=



000
FTUS41 KALY 232300
TAFALB
TAF
KALB 232340Z 2400/2424 VRB05KT P6SM VCSH SCT025 BKN060
      TEMPO 2400/2402 5SM -SHRA BKN025
     FM240200 36005KT P6SM MIFG BKN050 BKN100
     FM241100 36008KT P6SM SCT050 BKN250=



000
FTUS41 KALY 232300
TAFGFL
TAF
KGFL 232340Z 2400/2424 VRB03KT P6SM VCSH SCT015 BKN050 BKN100
      TEMPO 2400/2402 36010G20KT 2SM -SHRA BR BKN015
     FM240200 36005KT P6SM MIFG SCT050 BKN100
     FM241100 36008KT P6SM SCT050 SCT250=



000
FTUS41 KALY 232300
TAFPOU
TAF
KPOU 232340Z 2400/2424 22005KT P6SM VCTS SCT060CB
     FM240200 VRB03KT P6SM VCSH BKN050
     FM240600 34003KT 6SM BR BKN050
     FM241200 34008KT P6SM SCT050 BKN250=



000
FTUS41 KALY 232300 AAC
TAFALB
TAF AMD
KALB 232300Z 2323/2418 32005KT P6SM VCSH SCT025 BKN060
      TEMPO 2323/2401 5SM -SHRA BR BKN025
     FM240200 31006KT P6SM BKN050 BKN100
     FM240900 33003KT 6SM BR SCT050
     FM241300 33007KT P6SM SCT050=



000
FTUS41 KALY 232200 AAA
TAFGFL
TAF AMD
KGFL 232257Z 2323/2418 27005KT 5SM SHRA OVC080
     FM240000 27005KT P6SM SCT015 BKN050 BKN100
     FM240900 33003KT 3SM BR SCT050
     FM241300 04006KT P6SM SCT050=



000
FTUS41 KALY 232100 AAB
TAFALB
TAF AMD
KALB 232114Z 2321/2418 19010KT P6SM VCTS BKN050CB
      TEMPO 2321/2323 28015G30KT 3SM TSRA OVC030CB
     FM240000 VRB05KT P6SM VCSH OVC050
     FM240200 31006KT P6SM BKN050 BKN100
     FM240900 33003KT 6SM BR SCT050
     FM241300 33007KT P6SM SCT050=



000
FTUS41 KALY 232000 AAA
TAFALB
TAF AMD
KALB 232051Z 2321/2418 19010G20KT P6SM VCSH SCT050
     FM232130 27010G20KT P6SM VCTS BKN050CB BKN100
      TEMPO 2322/2323 VRB25KT 3SM TSRA OVC020CB
     FM240000 VRB05KT P6SM VCSH OVC050
     FM240200 31006KT P6SM BKN050 BKN100
     FM240900 33003KT 6SM BR SCT050
     FM241300 33007KT P6SM SCT050=



000
FTUS41 KALY 231700
TAFPOU
TAF
KPOU 231736Z 2318/2418 20008KT P6SM SCT050
     FM232200 23007KT P6SM VCSH SCT050
      TEMPO 2323/2324 VRB10G25KT 3SM -TSRA BR SCT020 OVC035CB
     FM240400 35003KT P6SM VCSH BKN050 BKN100
     FM240900 34003KT P6SM BKN050
     FM241400 34007KT P6SM SCT050 BKN100=



000
FTUS41 KALY 231700
TAFGFL
TAF
KGFL 231736Z 2318/2418 20008KT P6SM SCT050
     FM231900 23007KT P6SM VCSH SCT050
      TEMPO 2321/2322 VRB10G25KT 3SM -TSRA BR SCT020 OVC035CB
     FM240100 25007KT P6SM BKN050 BKN100
     FM240900 33003KT 6SM BR SCT050
     FM241300 04006KT P6SM SCT050=



000
FTUS41 KALY 231700
TAFALB
TAF
KALB 231736Z 2318/2418 19010KT P6SM SCT050
     FM232000 27008KT P6SM VCSH BKN050 BKN100
      TEMPO 2321/2322 VRB01G25KT 3SM -TSRA BR SCT020 OVC035CB
     FM240200 31006KT P6SM BKN050 BKN100
     FM240900 33003KT 6SM BR SCT050
     FM241300 33007KT P6SM SCT050=



000
FTUS41 KALY 231100
TAFGFL
TAF
KGFL 231136Z 2312/2412 17005KT P6SM FEW060
     FM231300 19006KT 6SM HZ SCT050 SCT250
     FM231600 21008KT P6SM SCT050 SCT250
     FM231800 22008KT P6SM BKN050 BKN100 PROB30 2321/2401 3SM TSRA
      BR BKN015CB BKN035
     FM240100 25007KT P6SM BKN050 BKN100=



000
FTUS41 KALY 231100
TAFPOU
TAF
KPOU 231136Z 2312/2412 00000KT P6SM SKC
     FM231300 20005KT 6SM HZ SCT050 SCT250
     FM231600 21007KT P6SM SCT050 SCT250
     FM231800 22008KT P6SM SCT050 BKN100
     FM232200 23007KT P6SM BKN050 BKN100 PROB30 2322/2404 3SM TSRA
      BR BKN015CB BKN035
     FM240400 35003KT P6SM BKN050 BKN100=



000
FTUS41 KALY 231100
TAFALB
TAF
KALB 231136Z 2312/2412 15005KT P6SM FEW080
     FM231300 19008KT 6SM HZ SCT050 SCT250
     FM231600 22010KT P6SM SCT050 SCT250
     FM231800 23010KT P6SM BKN050 BKN100
     FM232100 27008KT P6SM BKN050 BKN100 PROB30 2321/2402 3SM TSRA
      BR BKN015CB BKN035
     FM240200 31006KT P6SM BKN050 BKN100=



000
FTUS41 KALY 230900 AAA
TAFGFL
TAF AMD
KGFL 230920Z 2309/2406 18008KT P6SM SKC
     FM231300 19006KT 6SM HZ SCT050 SCT250
     FM231600 21008KT P6SM SCT050 SCT250
     FM231800 22008KT P6SM BKN050 BKN100 PROB30 2318/2324 3SM TSRA
      BKN015CB BKN030
     FM240000 25007KT P6SM BKN050 BKN100=



000
FTUS41 KALY 230900 AAA
TAFPOU
TAF AMD
KPOU 230919Z 2309/2406 00000KT P6SM SKC
     FM231300 20005KT 6SM HZ SCT050 SCT250
     FM231600 21007KT P6SM SCT050 SCT250
     FM231800 22008KT P6SM SCT050 BKN100
     FM232200 23007KT P6SM BKN050 BKN100 PROB30 2322/2404 3SM TSRA
      BR BKN015CB BKN035
     FM240400 35003KT P6SM BKN050 BKN100=



000
FTUS41 KALY 230500
TAFGFL
TAF
KGFL 230520Z 2306/2406 20005KT P6SM SKC
      TEMPO 2308/2310 2SM BR BKN008
     FM231300 19006KT 6SM HZ SCT050 SCT250
     FM231600 21008KT P6SM SCT050 SCT250
     FM231800 22008KT P6SM BKN050 BKN100 PROB30 2318/2324 3SM TSRA
      BKN015CB BKN030
     FM240000 25007KT P6SM BKN050 BKN100=



000
FTUS41 KALY 230500
TAFALB
TAF
KALB 230520Z 2306/2406 17006KT P6SM SKC
     FM231300 19008KT 6SM HZ SCT050 SCT250
     FM231600 22010KT P6SM SCT050 SCT250
     FM231800 23010KT P6SM BKN050 BKN100 PROB30 2318/2321 4SM TSRA
      BKN025CB BKN040
     FM232100 27008KT P6SM BKN050 BKN100 PROB30 2321/2402 3SM TSRA
      BR BKN015CB BKN035
     FM240200 31006KT P6SM BKN050 BKN100=



000
FTUS41 KALY 230500
TAFPOU
TAF
KPOU 230520Z 2306/2406 00000KT P6SM SKC
     FM231000 18003KT 2SM BR SCT250
     FM231300 20005KT 6SM HZ SCT050 SCT250
     FM231600 21007KT P6SM SCT050 SCT250
     FM231800 22008KT P6SM SCT050 BKN100
     FM232200 23007KT P6SM BKN050 BKN100 PROB30 2322/2404 3SM TSRA
      BR BKN015CB BKN035
     FM240400 35003KT P6SM BKN050 BKN100=



000
FTUS41 KALY 222300 RRA
TAFALB
TAF
KALB 222351Z 2300/2324 18008KT P6SM SCT060
     FM230500 18006KT P6SM SKC
     FM231000 18003KT 5SM BR SCT250
     FM231300 19008KT 6SM HZ SCT050 SCT250
     FM231600 22010KT P6SM SCT050 SCT250
     FM231800 23010KT P6SM BKN050 BKN100 PROB30 2318/2321 4SM TSRA
      BKN025CB BKN040
     FM232100 27008KT P6SM BKN050 BKN100 PROB30 2321/2324 3SM TSRA
      BR BKN015CB BKN035=



000
FTUS41 KALY 222300 RRA
TAFPOU
TAF
KPOU 222351Z 2300/2324 20004KT P6SM SCT060
     FM230600 00000KT 4SM BR SKC
     FM231000 18003KT 2SM BR SCT250
     FM231300 20005KT 6SM HZ SCT050 SCT250
     FM231600 21007KT P6SM SCT050 SCT250
     FM231800 22008KT P6SM SCT050 BKN100
     FM232200 23007KT P6SM BKN050 BKN100 PROB30 2322/2324 3SM TSRA
      BR BKN015CB BKN035=



000
FTUS41 KALY 222300 RRA
TAFGFL
TAF
KGFL 222351Z 2300/2324 19007KT P6SM FEW060
     FM230500 18003KT 3SM BR SKC
     FM230800 18003KT 1SM BR SCT250
     FM231300 19006KT 6SM HZ SCT050 SCT250
     FM231600 21008KT P6SM SCT050 SCT250
     FM231800 22008KT P6SM BKN050 BKN100 PROB30 2318/2322 3SM TSRA
      BKN015CB BKN030
     FM232200 25007KT P6SM BKN050 BKN100=



000
FTUS41 KALY 221700 RRA
TAFGFL
TAF
KGFL 221744Z 2218/2318 16007KT P6SM FEW030 SCT035 BKN090
     FM230500 17003KT 3SM BR SCT090
     FM230700 18002KT 1SM BR SCT250
     FM231300 19007KT 6SM HZ FEW100 SCT250
     FM231500 20010KT P6SM BKN050=



000
FTUS41 KALY 221700 RRA
TAFALB
TAF
KALB 221744Z 2218/2318 00000KT P6SM FEW035 SCT090
     FM230200 19005KT P6SM BKN040
     FM231000 18003KT 5SM BR SKC
     FM231300 19008KT 6SM HZ SCT250
     FM231700 24008KT P6SM SCT250=



000
FTUS41 KALY 221700 RRA
TAFPOU
TAF
KPOU 221744Z 2218/2318 25006KT P6SM SKC
     FM222100 19006KT P6SM BKN050
     FM230200 VRB02KT P6SM SKC
     FM230700 18002KT 4SM BR SKC
     FM231000 18002KT 2SM BR FEW250
     FM231300 19008KT 6SM HZ SCT250=



000
FTUS41 KALY 221600 AAA
TAFPOU
TAF AMD
KPOU 221602Z 2216/2312 VRB06KT P6SM SKC
     FM230200 17003KT P6SM BKN060
     FM231000 VRB02KT 2SM BR SKC=



000
FTUS41 KALY 221600 AAA
TAFALB
TAF AMD
KALB 221601Z 2216/2312 00000KT P6SM SCT030 SCT090
     FM221900 18005KT P6SM SCT070 SCT250
     FM230200 19005KT P6SM BKN070=



000
FTUS41 KALY 221500 AAA
TAFGFL
TAF AMD
KGFL 221559Z 2216/2312 16008KT P6SM SCT027
     FM221800 19007KT P6SM SCT040
     FM230200 18003KT P6SM BKN060=



000
FTUS41 KALY 221100 RRA
TAFGFL
TAF
KGFL 221145Z 2212/2312 00000KT P6SM SKC
     FM221700 19007KT P6SM FEW060 SCT250
     FM230200 18003KT P6SM BKN060=



000
FTUS41 KALY 221100 RRA
TAFPOU
TAF
KPOU 221145Z 2212/2312 00000KT P6SM SKC
     FM221500 22006KT P6SM FEW060 SCT250
     FM230200 17003KT P6SM BKN060=



000
FTUS41 KALY 221100 RRA
TAFALB
TAF
KALB 221145Z 2212/2312 16006KT P6SM FEW100 FEW260
     FM221600 21006KT P6SM SCT070 SCT250
     FM230200 19005KT P6SM BKN070=



000
FTUS41 KALY 221000 AAA
TAFGFL
TAF AMD
KGFL 221001Z 2210/2306 18003KT P6SM SCT250
      TEMPO 2210/2211 1SM BR
     FM221700 19007KT P6SM FEW060 SCT250
     FM230200 18003KT P6SM BKN060=



000
FTUS41 KALY 220500
TAFGFL
TAF
KGFL 220524Z 2206/2306 00000KT P6SM SCT250
      TEMPO 2206/2210 2SM BR BKN002
     FM221000 18003KT P6SM SCT250
      TEMPO 2210/2211 5SM BR
     FM221700 19007KT P6SM FEW060 SCT250
     FM230200 18003KT P6SM BKN060=



000
FTUS41 KALY 220500
TAFPOU
TAF
KPOU 220524Z 2206/2306 00000KT P6SM SCT250
     FM221500 22006KT P6SM FEW060 SCT250
     FM230200 17003KT P6SM BKN060=



000
FTUS41 KALY 220500
TAFALB
TAF
KALB 220524Z 2206/2306 16003KT P6SM SCT070 SCT250
     FM221600 21006KT P6SM SCT070 SCT250
     FM230200 19005KT P6SM BKN070=



000
FTUS41 KALY 220300 AAA
TAFGFL
TAF AMD
KGFL 220336Z 2204/2224 00000KT P6SM FEW060 SCT250
      TEMPO 2205/2207 2SM BR BKN002
     FM220700 00000KT 2SM BR BKN002
     FM221100 18003KT P6SM SCT250
     FM221700 19007KT P6SM FEW050 SCT250=



000
FTUS41 KALY 212300
TAFGFL
TAF
KGFL 212323Z 2200/2224 17005KT P6SM SCT045 BKN120
     FM220200 00000KT P6SM FEW050 SCT250
     FM220300 00000KT 3SM BR SCT250
      TEMPO 2204/2206 2SM BR BKN002
     FM220600 00000KT 2SM BR BKN002
     FM221100 18003KT P6SM SCT250
     FM221700 19007KT P6SM FEW050 SCT250=



000
FTUS41 KALY 212300
TAFPOU
TAF
KPOU 212323Z 2200/2224 17003KT P6SM BKN100
     FM220200 00000KT P6SM SCT100
     FM221600 22006KT P6SM FEW060 SCT250=



000
FTUS41 KALY 212300
TAFALB
TAF
KALB 212323Z 2200/2224 18006KT P6SM SCT100
     FM220300 18003KT P6SM FEW100 SCT250
     FM221600 21007KT P6SM FEW060 SCT250=



000
FTUS41 KALY 211800 AAA
TAFALB
TAF AMD
KALB 211854Z 2119/2218 19008KT P6SM SCT040
     FM220600 00000KT P6SM MIFG SKC
     FM221200 19005KT P6SM FEW060=



000
FTUS41 KALY 211800 AAA
TAFGFL
TAF AMD
KGFL 211854Z 2119/2218 15005KT P6SM SCT040
     FM220200 00000KT P6SM SCT060
     FM220600 00000KT 2SM BR SCT008
     FM221100 19005KT P6SM FEW060=



000
FTUS41 KALY 211700
TAFALB
TAF
KALB 211729Z 2118/2218 19008KT P6SM VCSH SCT040
     FM220600 00000KT P6SM MIFG SKC
     FM221200 19005KT P6SM FEW060=



000
FTUS41 KALY 211700
TAFGFL
TAF
KGFL 211729Z 2118/2218 15005KT P6SM VCSH BKN040
     FM220200 00000KT P6SM SCT060
     FM220600 00000KT 2SM BR SCT008
     FM221100 19005KT P6SM FEW060=



000
FTUS41 KALY 211700
TAFPOU
TAF
KPOU 211729Z 2118/2218 20005KT P6SM SCT050
     FM220600 00000KT P6SM MIFG SKC
     FM221100 20005KT P6SM FEW060=



000
FTUS41 KALY 211100
TAFPOU
TAF
KPOU 211120Z 2112/2212 00000KT P6SM SCT070
     FM211600 20005KT P6SM SCT060 SCT100
     FM220200 00000KT P6SM SCT060 SCT100=



000
FTUS41 KALY 211100
TAFGFL
TAF
KGFL 211120Z 2112/2212 00000KT P6SM BKN070
     FM211400 16003KT P6SM SCT070 SCT100
     FM211800 18006KT P6SM VCSH SCT060 BKN100
     FM220200 00000KT P6SM SCT060 SCT100
     FM220600 00000KT 2SM BR FEW060=



000
FTUS41 KALY 211100
TAFALB
TAF
KALB 211120Z 2112/2212 18003KT P6SM BKN070
     FM211500 18005KT P6SM SCT070 SCT100
     FM211800 18005KT P6SM VCSH SCT050 BKN100
     FM220200 18003KT P6SM SCT070 SCT100=



000
FTUS41 KALY 210500
TAFPOU
TAF
KPOU 210523Z 2106/2206 00000KT P6SM SCT150
     FM211600 21005KT P6SM SCT060 SCT100
     FM220200 00000KT P6SM SCT060 SCT100=



000
FTUS41 KALY 210500
TAFALB
TAF
KALB 210523Z 2106/2206 00000KT P6SM BKN070 BKN100
     FM211200 18003KT P6SM SCT070 SCT100
     FM211800 18006KT P6SM VCSH SCT050 BKN100
     FM220200 18003KT P6SM SCT070 SCT100=



000
FTUS41 KALY 210500
TAFGFL
TAF
KGFL 210523Z 2106/2206 00000KT P6SM SCT100
      TEMPO 2106/2110 2SM BR BKN002
     FM211400 16003KT P6SM SCT050 SCT100
     FM211800 18006KT P6SM VCSH SCT050 BKN100
     FM220200 00000KT P6SM SCT060 SCT100=



000
FTUS41 KALY 210400 AAA
TAFGFL
TAF AMD
KGFL 210406Z 2104/2124 00000KT P6SM SCT100
      TEMPO 2105/2109 2SM BR BKN002
     FM210900 00000KT 1SM BR SCT100
     FM211100 16003KT P6SM SCT100 BKN150
     FM211600 18006KT P6SM SCT050 BKN120=



    US Dept of Commerce
    National Oceanic and Atmospheric Administration
    National Weather Service
    1325 East West Highway
    Silver Spring, MD 20910
    Page Author: NWS Internet Services Team
Disclaimer
Information Quality
Credits
Glossary
Privacy Policy
Freedom of Information Act (FOIA)
About Us
Career Opportunities